createdAt,value
2018-09-16T09:03:38.699Z,992.31
2018-09-16T09:04:38.343Z,992.32
2018-09-16T09:06:31.654Z,992.32
2018-09-16T09:07:31.485Z,992.32
2018-09-16T09:09:24.786Z,992.26
2018-09-16T09:10:24.394Z,992.29
2018-09-16T09:12:18.153Z,992.24
2018-09-16T09:13:17.933Z,992.22
2018-09-16T09:15:26.094Z,992.25
2018-09-16T09:16:25.856Z,992.25
2018-09-16T09:18:19.042Z,992.22
2018-09-16T09:19:18.914Z,992.25
2018-09-16T09:21:12.230Z,992.23
2018-09-16T09:22:11.966Z,992.22
2018-09-16T09:24:05.090Z,992.25
2018-09-16T09:25:04.957Z,992.22
2018-09-16T09:26:59.051Z,992.24
2018-09-16T09:27:58.533Z,992.20
2018-09-16T09:29:51.994Z,992.15
2018-09-16T09:30:51.697Z,992.20
2018-09-16T09:32:45.499Z,992.22
2018-09-16T09:33:45.331Z,992.23
2018-09-16T09:35:38.411Z,992.21
2018-09-16T09:36:38.432Z,992.20
2018-09-16T09:38:32.342Z,992.20
2018-09-16T09:39:32.242Z,992.23
2018-09-16T09:41:25.892Z,992.20
2018-09-16T09:42:25.871Z,992.20
2018-09-16T09:44:18.992Z,992.20
2018-09-16T09:45:18.495Z,992.22
2018-09-16T09:47:12.287Z,992.22
2018-09-16T09:48:12.515Z,992.23
2018-09-16T09:50:05.636Z,992.18
2018-09-16T09:51:05.231Z,992.20
2018-09-16T09:52:58.648Z,992.17
2018-09-16T09:53:58.605Z,992.15
2018-09-16T09:55:51.756Z,992.17
2018-09-16T09:56:51.263Z,992.14
2018-09-16T09:58:44.817Z,992.17
2018-09-16T09:59:44.394Z,992.16
2018-09-16T10:01:38.380Z,992.14
2018-09-16T10:02:37.993Z,992.16
2018-09-16T10:04:31.101Z,992.18
2018-09-16T10:05:30.988Z,992.14
2018-09-16T10:07:24.204Z,992.10
2018-09-16T10:08:24.030Z,992.06
2018-09-16T10:10:17.396Z,992.06
2018-09-16T10:11:17.110Z,992.02
2018-09-16T10:13:11.326Z,991.97
2018-09-16T10:14:10.816Z,991.98
2018-09-16T10:16:07.875Z,991.95
2018-09-16T10:17:07.618Z,991.92
2018-09-16T10:19:01.175Z,991.89
2018-09-16T10:20:00.693Z,991.88
2018-09-16T10:21:54.163Z,991.84
2018-09-16T10:22:53.830Z,991.82
2018-09-16T10:24:47.270Z,991.84
2018-09-16T10:25:47.272Z,991.80
2018-09-16T10:27:40.930Z,991.75
2018-09-16T10:28:40.481Z,991.72
2018-09-16T10:29:40.480Z,991.67
2018-09-16T10:30:41.128Z,991.65
2018-09-16T10:31:40.451Z,991.62
2018-09-16T10:32:40.760Z,991.58
2018-09-16T10:33:40.391Z,991.59
2018-09-16T10:34:40.368Z,991.62
2018-09-16T10:35:40.358Z,991.65
2018-09-16T10:36:40.364Z,991.60
2018-09-16T10:37:40.308Z,991.61
2018-09-16T10:38:40.307Z,991.63
2018-09-16T10:39:40.259Z,991.60
2018-09-16T10:40:40.400Z,991.52
2018-09-16T10:41:40.261Z,991.56
2018-09-16T10:42:40.205Z,991.56
2018-09-16T10:43:40.280Z,991.53
2018-09-16T10:44:40.302Z,991.51
2018-09-16T10:45:40.186Z,991.46
2018-09-16T10:46:40.131Z,991.43
2018-09-16T10:47:40.138Z,991.44
2018-09-16T10:48:40.254Z,991.43
2018-09-16T10:49:40.169Z,991.41
2018-09-16T10:50:40.153Z,991.44
2018-09-16T10:51:40.050Z,991.40
2018-09-16T10:52:40.026Z,991.42
2018-09-16T10:53:40.014Z,991.42
2018-09-16T10:54:40.182Z,991.42
2018-09-16T10:55:39.958Z,991.38
2018-09-16T10:56:39.976Z,991.37
2018-09-16T10:57:39.965Z,991.36
2018-09-16T10:58:40.159Z,991.37
2018-09-16T10:59:39.933Z,991.36
2018-09-16T11:00:39.882Z,991.36
2018-09-16T11:01:39.847Z,991.34
2018-09-16T11:02:39.823Z,991.32
2018-09-16T11:03:39.806Z,991.31
2018-09-16T11:04:39.813Z,991.25
2018-09-16T11:05:39.763Z,991.23
2018-09-16T11:06:39.742Z,991.26
2018-09-16T11:07:39.911Z,991.25
2018-09-16T11:08:39.725Z,991.25
2018-09-16T11:09:39.708Z,991.22
2018-09-16T11:10:39.697Z,991.27
2018-09-16T11:11:39.705Z,991.24
2018-09-16T11:12:39.631Z,991.26
2018-09-16T11:13:40.224Z,991.30
2018-09-16T11:14:40.094Z,991.30
2018-09-16T11:15:39.584Z,991.29
2018-09-16T11:16:39.554Z,991.28
2018-09-16T11:17:39.531Z,991.27
2018-09-16T11:18:39.548Z,991.24
2018-09-16T11:19:39.522Z,991.22
2018-09-16T11:20:39.565Z,991.23
2018-09-16T11:21:39.462Z,991.21
2018-09-16T11:22:39.455Z,991.23
2018-09-16T11:23:39.387Z,991.18
2018-09-16T11:24:39.380Z,991.15
2018-09-16T11:25:39.374Z,991.17
2018-09-16T11:26:39.341Z,991.12
2018-09-16T11:27:39.323Z,991.11
2018-09-16T11:28:39.316Z,991.09
2018-09-16T11:29:39.358Z,991.16
2018-09-16T11:30:39.281Z,991.13
2018-09-16T11:31:39.240Z,991.13
2018-09-16T11:32:39.221Z,991.17
2018-09-16T11:33:39.215Z,991.12
2018-09-16T11:34:39.191Z,991.07
2018-09-16T11:35:39.196Z,991.04
2018-09-16T11:36:39.392Z,991.02
2018-09-16T11:37:39.124Z,991.00
2018-09-16T11:38:39.115Z,990.98
2018-09-16T11:39:39.091Z,990.96
2018-09-16T11:40:39.054Z,990.97
2018-09-16T11:41:39.036Z,990.98
2018-09-16T11:42:39.011Z,990.99
2018-09-16T11:43:38.986Z,990.93
2018-09-16T11:44:38.981Z,990.95
2018-09-16T11:45:39.006Z,990.98
2018-09-16T11:46:39.034Z,990.97
2018-09-16T11:47:39.051Z,990.96
2018-09-16T11:48:38.928Z,990.92
2018-09-16T11:49:38.867Z,990.91
2018-09-16T11:50:38.846Z,990.89
2018-09-16T11:51:38.869Z,990.89
2018-09-16T11:52:38.803Z,990.90
2018-09-16T11:53:38.791Z,990.90
2018-09-16T11:54:38.750Z,990.87
2018-09-16T11:55:38.765Z,990.88
2018-09-16T11:56:38.718Z,990.88
2018-09-16T11:57:38.698Z,990.85
2018-09-16T11:58:38.679Z,990.82
2018-09-16T11:59:38.651Z,990.79
2018-09-16T12:00:38.626Z,990.82
2018-09-16T12:01:38.601Z,990.76
2018-09-16T12:02:38.630Z,990.77
2018-09-16T12:03:38.607Z,990.77
2018-09-16T12:04:38.548Z,990.79
2018-09-16T12:05:38.525Z,990.78
2018-09-16T12:06:38.505Z,990.76
2018-09-16T12:07:38.511Z,990.75
2018-09-16T12:08:38.457Z,990.76
2018-09-16T12:09:38.463Z,990.78
2018-09-16T12:10:38.445Z,990.75
2018-09-16T12:11:38.435Z,990.74
2018-09-16T12:12:38.386Z,990.78
2018-09-16T12:13:38.375Z,990.74
2018-09-16T12:14:38.369Z,990.72
2018-09-16T12:15:38.338Z,990.75
2018-09-16T12:16:38.335Z,990.70
2018-09-16T12:17:38.306Z,990.68
2018-09-16T12:18:38.281Z,990.70
2018-09-16T12:19:38.259Z,990.72
2018-09-16T12:20:38.217Z,990.67
2018-09-16T12:21:38.205Z,990.69
2018-09-16T12:22:38.175Z,990.65
2018-09-16T12:23:38.158Z,990.62
2018-09-16T12:24:38.143Z,990.61
2018-09-16T12:25:38.169Z,990.65
2018-09-16T12:26:38.104Z,990.68
2018-09-16T12:27:38.058Z,990.65
2018-09-16T12:28:38.058Z,990.64
2018-09-16T12:29:38.038Z,990.66
2018-09-16T12:30:38.010Z,990.65
2018-09-16T12:31:37.998Z,990.62
2018-09-16T12:32:37.978Z,990.58
2018-09-16T12:33:37.941Z,990.57
2018-09-16T12:34:37.923Z,990.58
2018-09-16T12:35:37.903Z,990.55
2018-09-16T12:36:37.894Z,990.55
2018-09-16T12:37:37.846Z,990.55
2018-09-16T12:38:37.832Z,990.54
2018-09-16T12:39:37.858Z,990.51
2018-09-16T12:40:37.788Z,990.48
2018-09-16T12:41:37.770Z,990.47
2018-09-16T12:42:37.746Z,990.47
2018-09-16T12:43:37.746Z,990.46
2018-09-16T12:44:37.708Z,990.45
2018-09-16T12:45:37.676Z,990.41
2018-09-16T12:46:37.804Z,990.39
2018-09-16T12:47:37.636Z,990.41
2018-09-16T12:48:37.611Z,990.35
2018-09-16T12:49:37.591Z,990.33
2018-09-16T12:50:37.583Z,990.36
2018-09-16T12:51:37.583Z,990.36
2018-09-16T12:52:37.522Z,990.37
2018-09-16T12:53:37.503Z,990.39
2018-09-16T12:54:37.485Z,990.41
2018-09-16T12:55:37.458Z,990.40
2018-09-16T12:56:37.453Z,990.37
2018-09-16T12:57:37.426Z,990.44
2018-09-16T12:58:37.389Z,990.44
2018-09-16T12:59:37.373Z,990.42
2018-09-16T13:00:37.364Z,990.41
2018-09-16T13:01:37.333Z,990.40
2018-09-16T13:02:37.306Z,990.44
2018-09-16T13:03:37.292Z,990.39
2018-09-16T13:04:37.307Z,990.35
2018-09-16T13:05:37.237Z,990.35
2018-09-16T13:06:37.217Z,990.28
2018-09-16T13:07:37.213Z,990.29
2018-09-16T13:08:37.199Z,990.25
2018-09-16T13:09:37.158Z,990.19
2018-09-16T13:10:37.136Z,990.19
2018-09-16T13:11:37.112Z,990.19
2018-09-16T13:12:37.098Z,990.16
2018-09-16T13:13:37.102Z,990.14
2018-09-16T13:14:37.042Z,990.14
2018-09-16T13:15:37.038Z,990.13
2018-09-16T13:16:37.006Z,990.08
2018-09-16T13:17:36.985Z,990.11
2018-09-16T13:18:36.963Z,990.08
2018-09-16T13:19:36.983Z,990.08
2018-09-16T13:20:36.962Z,990.06
2018-09-16T13:21:36.890Z,990.09
2018-09-16T13:22:36.885Z,990.06
2018-09-16T13:23:36.845Z,990.02
2018-09-16T13:24:36.817Z,989.97
2018-09-16T13:25:36.807Z,989.96
2018-09-16T13:26:36.793Z,989.91
2018-09-16T13:27:36.781Z,989.89
2018-09-16T13:28:36.781Z,989.89
2018-09-16T13:29:36.710Z,989.86
2018-09-16T13:30:36.690Z,989.86
2018-09-16T13:31:36.660Z,989.86
2018-09-16T13:32:36.642Z,989.86
2018-09-16T13:33:36.647Z,989.82
2018-09-16T13:34:36.590Z,989.79
2018-09-16T13:35:36.613Z,989.82
2018-09-16T13:36:36.576Z,989.81
2018-09-16T13:37:36.529Z,989.80
2018-09-16T13:38:36.510Z,989.81
2018-09-16T13:39:36.509Z,989.78
2018-09-16T13:40:36.494Z,989.78
2018-09-16T13:41:36.426Z,989.82
2018-09-16T13:42:36.435Z,989.79
2018-09-16T13:43:36.409Z,989.78
2018-09-16T13:44:36.413Z,989.80
2018-09-16T13:45:36.347Z,989.77
2018-09-16T13:46:36.327Z,989.74
2018-09-16T13:47:36.377Z,989.73
2018-09-16T13:48:36.287Z,989.74
2018-09-16T13:49:36.275Z,989.73
2018-09-16T13:50:36.239Z,989.72
2018-09-16T13:51:36.228Z,989.70
2018-09-16T13:52:36.183Z,989.67
2018-09-16T13:53:36.246Z,989.66
2018-09-16T13:54:36.191Z,989.67
2018-09-16T13:55:36.135Z,989.67
2018-09-16T13:56:36.139Z,989.66
2018-09-16T13:57:36.075Z,989.66
2018-09-16T13:58:36.046Z,989.65
2018-09-16T13:59:36.103Z,989.64
2018-09-16T14:00:36.015Z,989.62
2018-09-16T14:01:36.086Z,989.63
2018-09-16T14:02:36.020Z,989.64
2018-09-16T14:03:35.949Z,989.67
2018-09-16T14:04:35.929Z,989.62
2018-09-16T14:05:35.889Z,989.61
2018-09-16T14:06:35.898Z,989.64
2018-09-16T14:07:35.844Z,989.59
2018-09-16T14:08:35.839Z,989.59
2018-09-16T14:09:35.851Z,989.54
2018-09-16T14:10:35.781Z,989.57
2018-09-16T14:11:35.758Z,989.55
2018-09-16T14:12:35.771Z,989.55
2018-09-16T14:13:35.751Z,989.54
2018-09-16T14:14:35.702Z,989.51
2018-09-16T14:15:35.670Z,989.49
2018-09-16T14:16:35.643Z,989.49
2018-09-16T14:17:35.641Z,989.46
2018-09-16T14:18:35.618Z,989.49
2018-09-16T14:19:35.582Z,989.45
2018-09-16T14:20:35.556Z,989.43
2018-09-16T14:21:35.532Z,989.42
2018-09-16T14:22:35.513Z,989.44
2018-09-16T14:23:35.496Z,989.42
2018-09-16T14:24:35.469Z,989.42
2018-09-16T14:25:35.477Z,989.38
2018-09-16T14:26:35.416Z,989.39
2018-09-16T14:27:35.416Z,989.39
2018-09-16T14:28:35.373Z,989.38
2018-09-16T14:29:35.365Z,989.38
2018-09-16T14:30:35.357Z,989.35
2018-09-16T14:31:35.355Z,989.36
2018-09-16T14:32:35.334Z,989.35
2018-09-16T14:33:35.277Z,989.34
2018-09-16T14:34:35.232Z,989.33
2018-09-16T14:35:35.223Z,989.33
2018-09-16T14:36:35.280Z,989.30
2018-09-16T14:37:35.178Z,989.29
2018-09-16T14:38:35.159Z,989.25
2018-09-16T14:39:35.149Z,989.27
2018-09-16T14:40:35.106Z,989.25
2018-09-16T14:41:35.090Z,989.26
2018-09-16T14:42:35.077Z,989.25
2018-09-16T14:43:35.051Z,989.22
2018-09-16T14:44:35.021Z,989.21
2018-09-16T14:45:35.016Z,989.21
2018-09-16T14:46:34.974Z,989.15
2018-09-16T14:47:34.965Z,989.18
2018-09-16T14:48:34.922Z,989.14
2018-09-16T14:49:34.913Z,989.13
2018-09-16T14:50:34.889Z,989.16
2018-09-16T14:51:34.866Z,989.14
2018-09-16T14:52:34.869Z,989.16
2018-09-16T14:53:34.830Z,989.16
2018-09-16T14:54:34.947Z,989.12
2018-09-16T14:55:34.769Z,989.13
2018-09-16T14:56:34.750Z,989.14
2018-09-16T14:57:34.757Z,989.11
2018-09-16T14:58:34.701Z,989.07
2018-09-16T14:59:34.698Z,989.08
2018-09-16T15:00:34.650Z,989.09
2018-09-16T15:01:34.656Z,989.06
2018-09-16T15:02:34.610Z,989.09
2018-09-16T15:03:34.584Z,989.08
2018-09-16T15:04:34.586Z,989.04
2018-09-16T15:05:34.560Z,989.04
2018-09-16T15:06:34.517Z,989.02
2018-09-16T15:07:34.475Z,988.97
2018-09-16T15:08:34.482Z,989.00
2018-09-16T15:09:34.425Z,989.01
2018-09-16T15:10:34.398Z,989.03
2018-09-16T15:11:34.375Z,989.02
2018-09-16T15:12:34.351Z,989.02
2018-09-16T15:13:34.444Z,989.01
2018-09-16T15:14:34.361Z,988.97
2018-09-16T15:15:34.443Z,988.95
2018-09-16T15:16:34.279Z,988.93
2018-09-16T15:17:34.209Z,988.90
2018-09-16T15:18:34.193Z,988.86
2018-09-16T15:19:34.171Z,988.86
2018-09-16T15:20:34.166Z,988.85
2018-09-16T15:21:34.128Z,988.84
2018-09-16T15:22:34.114Z,988.82
2018-09-16T15:23:34.065Z,988.82
2018-09-16T15:24:34.110Z,988.82
2018-09-16T15:25:34.016Z,988.81
2018-09-16T15:26:33.971Z,988.79
2018-09-16T15:27:33.956Z,988.79
2018-09-16T15:28:34.760Z,988.80
2018-09-16T15:29:33.892Z,988.80
2018-09-16T15:30:33.875Z,988.79
2018-09-16T15:31:33.885Z,988.81
2018-09-16T15:32:33.812Z,988.80
2018-09-16T15:33:33.796Z,988.78
2018-09-16T15:34:33.765Z,988.78
2018-09-16T15:35:33.763Z,988.83
2018-09-16T15:36:33.774Z,988.77
2018-09-16T15:37:33.676Z,988.78
2018-09-16T15:38:33.683Z,988.80
2018-09-16T15:39:33.610Z,988.80
2018-09-16T15:40:33.602Z,988.82
2018-09-16T15:41:33.611Z,988.84
2018-09-16T15:42:33.566Z,988.82
2018-09-16T15:43:33.509Z,988.79
2018-09-16T15:44:33.473Z,988.81
2018-09-16T15:45:33.446Z,988.79
2018-09-16T15:46:33.615Z,988.79
2018-09-16T15:47:33.411Z,988.73
2018-09-16T15:48:33.356Z,988.70
2018-09-16T15:49:33.446Z,988.68
2018-09-16T15:50:33.316Z,988.68
2018-09-16T15:51:33.254Z,988.63
2018-09-16T15:52:33.236Z,988.67
2018-09-16T15:53:33.199Z,988.65
2018-09-16T15:54:33.258Z,988.58
2018-09-16T15:55:33.147Z,988.61
2018-09-16T15:56:33.103Z,988.61
2018-09-16T15:57:33.091Z,988.59
2018-09-16T15:58:33.048Z,988.58
2018-09-16T15:59:33.024Z,988.60
2018-09-16T16:00:32.987Z,988.55
2018-09-16T16:01:32.979Z,988.58
2018-09-16T16:02:32.948Z,988.61
2018-09-16T16:03:32.886Z,988.59
2018-09-16T16:04:32.887Z,988.57
2018-09-16T16:05:33.780Z,988.59
2018-09-16T16:06:32.855Z,988.60
2018-09-16T16:07:32.765Z,988.58
2018-09-16T16:08:32.778Z,988.58
2018-09-16T16:09:32.709Z,988.63
2018-09-16T16:10:32.817Z,988.62
2018-09-16T16:11:32.669Z,988.66
2018-09-16T16:12:32.637Z,988.64
2018-09-16T16:13:32.725Z,988.62
2018-09-16T16:14:32.566Z,988.67
2018-09-16T16:15:32.562Z,988.68
2018-09-16T16:16:32.543Z,988.65
2018-09-16T16:17:32.452Z,988.65
2018-09-16T16:18:32.441Z,988.62
2018-09-16T16:19:32.393Z,988.65
2018-09-16T16:20:32.445Z,988.66
2018-09-16T16:21:32.362Z,988.64
2018-09-16T16:22:32.345Z,988.61
2018-09-16T16:23:32.286Z,988.61
2018-09-16T16:24:32.254Z,988.65
2018-09-16T16:25:32.230Z,988.65
2018-09-16T16:26:32.179Z,988.65
2018-09-16T16:27:32.132Z,988.64
2018-09-16T16:28:32.181Z,988.63
2018-09-16T16:29:32.083Z,988.69
2018-09-16T16:30:32.048Z,988.64
2018-09-16T16:31:32.026Z,988.68
2018-09-16T16:32:31.985Z,988.70
2018-09-16T16:33:31.950Z,988.67
2018-09-16T16:34:31.929Z,988.69
2018-09-16T16:35:31.905Z,988.69
2018-09-16T16:36:31.859Z,988.68
2018-09-16T16:37:31.824Z,988.69
2018-09-16T16:38:31.858Z,988.69
2018-09-16T16:39:31.774Z,988.68
2018-09-16T16:40:31.744Z,988.70
2018-09-16T16:41:31.697Z,988.70
2018-09-16T16:42:31.750Z,988.68
2018-09-16T16:43:31.719Z,988.70
2018-09-16T16:44:31.677Z,988.72
2018-09-16T16:45:31.645Z,988.74
2018-09-16T16:46:31.535Z,988.73
2018-09-16T16:47:31.515Z,988.73
2018-09-16T16:48:31.478Z,988.75
2018-09-16T16:49:31.435Z,988.75
2018-09-16T16:50:31.425Z,988.73
2018-09-16T16:51:31.413Z,988.72
2018-09-16T16:52:31.424Z,988.77
2018-09-16T16:53:31.344Z,988.74
2018-09-16T16:54:31.295Z,988.69
2018-09-16T16:55:31.413Z,988.73
2018-09-16T16:56:31.221Z,988.70
2018-09-16T16:57:31.182Z,988.72
2018-09-16T16:58:31.147Z,988.74
2018-09-16T16:59:31.118Z,988.74
2018-09-16T17:00:31.137Z,988.69
2018-09-16T17:01:31.049Z,988.76
2018-09-16T17:02:31.029Z,988.73
2018-09-16T17:03:30.976Z,988.77
2018-09-16T17:04:30.975Z,988.71
2018-09-16T17:05:30.913Z,988.73
2018-09-16T17:06:30.883Z,988.78
2018-09-16T17:07:30.881Z,988.72
2018-09-16T17:08:31.559Z,988.73
2018-09-16T17:09:30.842Z,988.72
2018-09-16T17:10:30.757Z,988.71
2018-09-16T17:11:30.774Z,988.74
2018-09-16T17:12:30.683Z,988.74
2018-09-16T17:13:30.649Z,988.77
2018-09-16T17:14:30.767Z,988.77
2018-09-16T17:15:30.742Z,988.74
2018-09-16T17:16:30.555Z,988.71
2018-09-16T17:17:30.536Z,988.72
2018-09-16T17:18:30.498Z,988.75
2018-09-16T17:19:30.449Z,988.78
2018-09-16T17:20:30.442Z,988.80
2018-09-16T17:21:30.407Z,988.81
2018-09-16T17:22:30.352Z,988.82
2018-09-16T17:23:30.391Z,988.86
2018-09-16T17:24:30.295Z,988.82
2018-09-16T17:25:30.264Z,988.81
2018-09-16T17:26:30.246Z,988.80
2018-09-16T17:27:30.180Z,988.84
2018-09-16T17:28:30.190Z,988.78
2018-09-16T17:29:30.126Z,988.81
2018-09-16T17:30:30.095Z,988.79
2018-09-16T17:31:30.082Z,988.80
2018-09-16T17:32:30.054Z,988.78
2018-09-16T17:33:29.985Z,988.76
2018-09-16T17:34:29.949Z,988.79
2018-09-16T17:35:29.909Z,988.78
2018-09-16T17:36:29.883Z,988.78
2018-09-16T17:37:29.847Z,988.73
2018-09-16T17:38:29.843Z,988.73
2018-09-16T17:39:29.773Z,988.76
2018-09-16T17:40:29.798Z,988.76
2018-09-16T17:41:29.706Z,988.75
2018-09-16T17:42:29.715Z,988.79
2018-09-16T17:43:29.646Z,988.78
2018-09-16T17:44:29.708Z,988.76
2018-09-16T17:45:29.611Z,988.79
2018-09-16T17:46:29.601Z,988.75
2018-09-16T17:47:30.746Z,988.76
2018-09-16T17:48:31.817Z,988.79
2018-09-16T17:49:29.436Z,988.78
2018-09-16T17:50:29.401Z,988.77
2018-09-16T17:51:29.376Z,988.82
2018-09-16T17:52:29.379Z,988.82
2018-09-16T17:53:30.338Z,988.82
2018-09-16T17:54:29.338Z,988.82
2018-09-16T17:55:29.251Z,988.88
2018-09-16T17:56:29.416Z,988.89
2018-09-16T17:57:29.204Z,988.88
2018-09-16T17:58:29.265Z,988.89
2018-09-16T17:59:29.101Z,988.93
2018-09-16T18:00:29.178Z,988.92
2018-09-16T18:01:29.037Z,988.97
2018-09-16T18:02:29.022Z,988.95
2018-09-16T18:03:29.037Z,988.94
2018-09-16T18:04:29.031Z,988.97
2018-09-16T18:05:28.903Z,988.96
2018-09-16T18:06:28.879Z,988.99
2018-09-16T18:07:28.937Z,988.95
2018-09-16T18:08:30.932Z,988.95
2018-09-16T18:09:28.777Z,988.98
2018-09-16T18:10:28.826Z,988.96
2018-09-16T18:11:28.671Z,989.03
2018-09-16T18:12:28.678Z,989.01
2018-09-16T18:13:28.623Z,989.00
2018-09-16T18:14:28.597Z,988.99
2018-09-16T18:15:28.654Z,988.99
2018-09-16T18:16:28.611Z,988.97
2018-09-16T18:17:28.615Z,988.98
2018-09-16T18:18:28.523Z,988.97
2018-09-16T18:19:28.467Z,988.95
2018-09-16T18:20:28.382Z,988.92
2018-09-16T18:21:28.329Z,988.97
2018-09-16T18:22:28.327Z,988.95
2018-09-16T18:23:28.355Z,988.93
2018-09-16T18:24:28.208Z,988.93
2018-09-16T18:25:28.370Z,988.93
2018-09-16T18:26:28.179Z,988.94
2018-09-16T18:27:28.189Z,988.91
2018-09-16T18:28:28.134Z,988.93
2018-09-16T18:29:28.248Z,988.92
2018-09-16T18:30:28.074Z,988.90
2018-09-16T18:31:28.163Z,988.91
2018-09-16T18:32:28.015Z,988.94
2018-09-16T18:33:28.003Z,988.96
2018-09-16T18:34:27.886Z,988.96
2018-09-16T18:35:27.863Z,988.96
2018-09-16T18:36:27.828Z,988.98
2018-09-16T18:37:27.806Z,988.98
2018-09-16T18:38:27.767Z,989.00
2018-09-16T18:39:27.762Z,988.98
2018-09-16T18:40:27.682Z,988.97
2018-09-16T18:41:27.653Z,988.94
2018-09-16T18:42:27.692Z,989.00
2018-09-16T18:43:27.747Z,989.00
2018-09-16T18:44:27.547Z,989.01
2018-09-16T18:45:27.600Z,988.97
2018-09-16T18:46:27.449Z,988.95
2018-09-16T18:47:27.586Z,988.97
2018-09-16T18:48:27.692Z,988.98
2018-09-16T18:49:27.488Z,989.01
2018-09-16T18:50:27.353Z,988.96
2018-09-16T18:51:27.362Z,988.98
2018-09-16T18:52:27.300Z,988.95
2018-09-16T18:53:27.314Z,988.94
2018-09-16T18:54:27.168Z,988.92
2018-09-16T18:55:27.160Z,988.91
2018-09-16T18:56:27.114Z,988.92
2018-09-16T18:57:27.083Z,988.94
2018-09-16T18:58:27.051Z,988.92
2018-09-16T18:59:26.949Z,988.95
2018-09-16T19:00:26.935Z,988.92
2018-09-16T19:01:26.884Z,988.96
2018-09-16T19:02:26.847Z,988.97
2018-09-16T19:03:26.788Z,988.97
2018-09-16T19:04:26.768Z,988.96
2018-09-16T19:05:26.768Z,988.95
2018-09-16T19:06:26.708Z,989.03
2018-09-16T19:07:26.644Z,988.98
2018-09-16T19:08:26.618Z,988.96
2018-09-16T19:09:26.640Z,988.96
2018-09-16T19:10:26.589Z,988.95
2018-09-16T19:11:26.555Z,988.97
2018-09-16T19:12:26.501Z,988.96
2018-09-16T19:13:26.496Z,988.96
2018-09-16T19:14:26.491Z,988.97
2018-09-16T19:15:26.373Z,988.94
2018-09-16T19:16:26.331Z,988.97
2018-09-16T19:17:26.286Z,988.98
2018-09-16T19:18:26.266Z,989.00
2018-09-16T19:19:26.220Z,988.99
2018-09-16T19:20:26.254Z,989.00
2018-09-16T19:21:26.252Z,989.02
2018-09-16T19:22:26.103Z,988.96
2018-09-16T19:23:26.153Z,988.96
2018-09-16T19:24:26.016Z,988.96
2018-09-16T19:25:26.873Z,989.01
2018-09-16T19:26:25.977Z,989.06
2018-09-16T19:27:25.936Z,989.07
2018-09-16T19:28:25.884Z,989.08
2018-09-16T19:29:25.873Z,989.00
2018-09-16T19:30:25.841Z,989.05
2018-09-16T19:31:25.757Z,989.03
2018-09-16T19:32:25.716Z,989.04
2018-09-16T19:33:25.692Z,989.06
2018-09-16T19:34:25.672Z,989.03
2018-09-16T19:35:25.599Z,989.07
2018-09-16T19:36:25.590Z,989.05
2018-09-16T19:37:25.539Z,989.07
2018-09-16T19:38:25.500Z,989.11
2018-09-16T19:39:25.574Z,989.12
2018-09-16T19:40:25.496Z,989.16
2018-09-16T19:41:25.398Z,989.15
2018-09-16T19:42:25.350Z,989.19
2018-09-16T19:43:25.310Z,989.21
2018-09-16T19:44:25.332Z,989.22
2018-09-16T19:45:25.240Z,989.26
2018-09-16T19:46:25.223Z,989.24
2018-09-16T19:47:25.157Z,989.26
2018-09-16T19:48:25.115Z,989.26
2018-09-16T19:49:25.105Z,989.28
2018-09-16T19:50:25.055Z,989.25
2018-09-16T19:51:25.028Z,989.32
2018-09-16T19:52:24.968Z,989.29
2018-09-16T19:53:24.937Z,989.29
2018-09-16T19:54:24.998Z,989.32
2018-09-16T19:55:24.863Z,989.36
2018-09-16T19:56:24.826Z,989.37
2018-09-16T19:57:24.786Z,989.39
2018-09-16T19:58:24.756Z,989.39
2018-09-16T19:59:24.732Z,989.37
2018-09-16T20:00:24.679Z,989.39
2018-09-16T20:01:24.670Z,989.38
2018-09-16T20:02:24.610Z,989.34
2018-09-16T20:03:24.574Z,989.40
2018-09-16T20:04:24.527Z,989.38
2018-09-16T20:05:24.481Z,989.39
2018-09-16T20:06:24.451Z,989.42
2018-09-16T20:07:24.433Z,989.37
2018-09-16T20:08:24.416Z,989.42
2018-09-16T20:09:24.319Z,989.41
2018-09-16T20:10:24.312Z,989.42
2018-09-16T20:11:24.270Z,989.36
2018-09-16T20:12:24.225Z,989.39
2018-09-16T20:13:24.186Z,989.41
2018-09-16T20:14:24.200Z,989.40
2018-09-16T20:15:24.108Z,989.36
2018-09-16T20:16:24.100Z,989.33
2018-09-16T20:17:24.027Z,989.33
2018-09-16T20:18:23.986Z,989.30
2018-09-16T20:19:23.960Z,989.30
2018-09-16T20:20:23.916Z,989.32
2018-09-16T20:21:23.886Z,989.34
2018-09-16T20:22:23.842Z,989.30
2018-09-16T20:23:23.828Z,989.24
2018-09-16T20:24:23.794Z,989.31
2018-09-16T20:25:23.721Z,989.30
2018-09-16T20:26:23.696Z,989.28
2018-09-16T20:27:23.664Z,989.26
2018-09-16T20:28:23.623Z,989.23
2018-09-16T20:29:23.581Z,989.25
2018-09-16T20:30:23.535Z,989.25
2018-09-16T20:31:23.497Z,989.25
2018-09-16T20:32:23.536Z,989.21
2018-09-16T20:33:23.414Z,989.23
2018-09-16T20:34:23.381Z,989.21
2018-09-16T20:35:23.336Z,989.21
2018-09-16T20:36:23.318Z,989.22
2018-09-16T20:37:23.284Z,989.19
2018-09-16T20:38:23.228Z,989.22
2018-09-16T20:39:23.189Z,989.23
2018-09-16T20:40:23.149Z,989.21
2018-09-16T20:41:23.101Z,989.26
2018-09-16T20:42:23.071Z,989.26
2018-09-16T20:43:23.102Z,989.24
2018-09-16T20:44:23.047Z,989.26
2018-09-16T20:45:22.969Z,989.28
2018-09-16T20:46:22.934Z,989.25
2018-09-16T20:47:22.898Z,989.24
2018-09-16T20:48:22.849Z,989.29
2018-09-16T20:49:22.809Z,989.27
2018-09-16T20:50:22.825Z,989.30
2018-09-16T20:51:22.721Z,989.33
2018-09-16T20:52:22.761Z,989.32
2018-09-16T20:53:22.664Z,989.29
2018-09-16T20:54:22.616Z,989.30
2018-09-16T20:55:22.606Z,989.30
2018-09-16T20:56:22.560Z,989.26
2018-09-16T20:57:22.565Z,989.27
2018-09-16T20:58:22.620Z,989.25
2018-09-16T20:59:22.405Z,989.25
2018-09-16T21:00:22.408Z,989.28
2018-09-16T21:01:22.350Z,989.25
2018-09-16T21:02:22.313Z,989.29
2018-09-16T21:03:22.267Z,989.23
2018-09-16T21:04:22.240Z,989.28
2018-09-16T21:05:22.225Z,989.34
2018-09-16T21:06:22.137Z,989.33
2018-09-16T21:07:22.106Z,989.31
2018-09-16T21:08:22.104Z,989.32
2018-09-16T21:09:22.037Z,989.33
2018-09-16T21:10:21.985Z,989.30
2018-09-16T21:11:22.000Z,989.33
2018-09-16T21:12:21.922Z,989.31
2018-09-16T21:13:21.892Z,989.33
2018-09-16T21:14:21.835Z,989.31
2018-09-16T21:15:21.786Z,989.33
2018-09-16T21:16:21.773Z,989.31
2018-09-16T21:17:21.736Z,989.37
2018-09-16T21:18:21.680Z,989.34
2018-09-16T21:19:21.630Z,989.34
2018-09-16T21:20:21.652Z,989.34
2018-09-16T21:21:21.560Z,989.36
2018-09-16T21:22:21.539Z,989.39
2018-09-16T21:23:21.532Z,989.39
2018-09-16T21:24:21.450Z,989.38
2018-09-16T21:25:21.441Z,989.35
2018-09-16T21:26:21.513Z,989.34
2018-09-16T21:27:21.328Z,989.41
2018-09-16T21:28:21.306Z,989.36
2018-09-16T21:29:21.263Z,989.36
2018-09-16T21:30:21.214Z,989.39
2018-09-16T21:31:21.235Z,989.38
2018-09-16T21:32:21.219Z,989.36
2018-09-16T21:33:21.148Z,989.35
2018-09-16T21:34:21.192Z,989.36
2018-09-16T21:35:21.022Z,989.34
2018-09-16T21:36:20.988Z,989.32
2018-09-16T21:37:20.981Z,989.28
2018-09-16T21:38:20.946Z,989.28
2018-09-16T21:39:20.866Z,989.28
2018-09-16T21:40:20.882Z,989.27
2018-09-16T21:41:20.807Z,989.23
2018-09-16T21:42:20.907Z,989.23
2018-09-16T21:43:20.702Z,989.20
2018-09-16T21:44:20.700Z,989.21
2018-09-16T21:45:20.641Z,989.14
2018-09-16T21:46:20.587Z,989.14
2018-09-16T21:47:20.548Z,989.18
2018-09-16T21:48:20.513Z,989.14
2018-09-16T21:49:20.497Z,989.12
2018-09-16T21:50:20.430Z,989.12
2018-09-16T21:51:20.407Z,989.11
2018-09-16T21:52:20.359Z,989.10
2018-09-16T21:53:20.317Z,989.08
2018-09-16T21:54:20.283Z,989.05
2018-09-16T21:55:20.233Z,989.07
2018-09-16T21:56:20.194Z,989.05
2018-09-16T21:57:20.198Z,989.05